createdAt,value
2017-09-29T00:00:09.204Z,374.30
2017-09-29T00:01:29.701Z,354.90
2017-09-29T00:02:50.479Z,380.60
2017-09-29T00:04:12.054Z,379.60
2017-09-29T00:05:33.953Z,362.70
2017-09-29T00:06:54.408Z,341.10
2017-09-29T00:08:15.325Z,340.20
2017-09-29T00:09:35.828Z,327.90
2017-09-29T00:10:56.123Z,350.80
2017-09-29T00:12:16.704Z,350.80
2017-09-29T00:13:37.341Z,331.10
2017-09-29T00:14:57.777Z,299.80
2017-09-29T00:16:18.815Z,286.50
2017-09-29T00:17:39.168Z,288.40
2017-09-29T00:19:00.107Z,283.70
2017-09-29T00:20:20.498Z,290.40
2017-09-29T00:21:41.200Z,284.90
2017-09-29T00:23:01.876Z,280.90
2017-09-29T00:24:22.731Z,264.30
2017-09-29T00:25:43.913Z,273.10
2017-09-29T00:27:04.253Z,266.80
2017-09-29T00:28:24.734Z,253.20
2017-09-29T00:29:45.269Z,250.30
2017-09-29T00:31:05.725Z,274.40
2017-09-29T00:32:26.130Z,265.10
2017-09-29T00:33:46.851Z,262.60
2017-09-29T00:35:08.620Z,265.20
2017-09-29T00:36:29.219Z,262.50
2017-09-29T00:37:49.682Z,257.10
2017-09-29T00:39:10.204Z,277.30
2017-09-29T00:40:30.999Z,269.30
2017-09-29T00:41:51.380Z,258.00
2017-09-29T00:43:12.456Z,264.10
2017-09-29T00:45:49.873Z,275.50
2017-09-29T00:47:10.383Z,278.70
2017-09-29T00:48:31.043Z,279.30
2017-09-29T00:49:51.380Z,285.60
2017-09-29T00:51:12.047Z,267.20
2017-09-29T00:52:33.190Z,275.00
2017-09-29T00:53:54.052Z,297.40
2017-09-29T00:55:14.978Z,276.30
2017-09-29T00:56:37.353Z,252.90
2017-09-29T00:57:58.003Z,254.90
2017-09-29T00:59:18.699Z,246.90
2017-09-29T01:00:40.137Z,265.90
2017-09-29T01:02:00.901Z,257.70
2017-09-29T01:03:21.451Z,240.30
2017-09-29T01:04:41.858Z,258.70
2017-09-29T01:06:02.442Z,259.80
2017-09-29T01:07:23.198Z,243.80
2017-09-29T01:08:43.804Z,239.30
2017-09-29T01:10:05.190Z,230.30
2017-09-29T01:11:25.768Z,238.60
2017-09-29T01:12:46.667Z,262.90
2017-09-29T01:14:08.051Z,245.80
2017-09-29T01:15:28.628Z,231.20
2017-09-29T01:16:49.071Z,263.70
2017-09-29T01:18:10.780Z,281.40
2017-09-29T01:19:31.450Z,273.50
2017-09-29T01:20:51.857Z,278.70
2017-09-29T01:22:12.572Z,280.80
2017-09-29T01:23:33.238Z,280.70
2017-09-29T01:24:54.637Z,273.10
2017-09-29T01:26:15.056Z,289.40
2017-09-29T01:27:37.603Z,309.50
2017-09-29T01:28:58.580Z,349.50
2017-09-29T01:30:19.483Z,359.90
2017-09-29T01:31:39.919Z,362.50
2017-09-29T01:33:00.586Z,377.50
2017-09-29T01:34:21.781Z,370.40
2017-09-29T01:35:42.383Z,370.80
2017-09-29T01:37:03.099Z,340.00
2017-09-29T01:38:23.851Z,387.30
2017-09-29T01:39:44.310Z,375.00
2017-09-29T01:41:05.384Z,398.80
2017-09-29T01:42:26.017Z,390.20
2017-09-29T01:43:46.527Z,369.60
2017-09-29T01:45:08.176Z,383.30
2017-09-29T01:46:28.603Z,385.60
2017-09-29T01:47:49.113Z,395.60
2017-09-29T01:49:09.734Z,378.00
2017-09-29T01:50:30.407Z,382.10
2017-09-29T01:51:51.144Z,411.50
2017-09-29T01:53:11.740Z,363.50
2017-09-29T01:54:32.343Z,336.40
2017-09-29T01:55:53.259Z,281.00
2017-09-29T01:57:13.968Z,271.00
2017-09-29T01:58:34.455Z,265.80
2017-09-29T01:59:55.134Z,284.60
2017-09-29T02:01:15.936Z,281.20
2017-09-29T02:02:36.566Z,284.90
2017-09-29T02:03:57.207Z,308.00
2017-09-29T02:05:17.897Z,332.80
2017-09-29T02:06:39.705Z,334.80
2017-09-29T02:08:00.325Z,346.80
2017-09-29T02:09:21.480Z,359.10
2017-09-29T02:10:41.961Z,385.60
2017-09-29T02:12:02.617Z,392.00
2017-09-29T02:13:23.211Z,394.00
2017-09-29T02:14:44.185Z,403.50
2017-09-29T02:16:04.668Z,399.40
2017-09-29T02:17:26.024Z,439.40
2017-09-29T02:18:46.664Z,426.30
2017-09-29T02:20:07.392Z,407.40
2017-09-29T02:21:29.178Z,413.40
2017-09-29T02:22:50.056Z,413.20
2017-09-29T02:24:10.867Z,422.50
2017-09-29T02:25:32.054Z,429.30
2017-09-29T02:26:52.658Z,456.80
2017-09-29T02:28:13.382Z,457.50
2017-09-29T02:29:34.701Z,473.60
2017-09-29T02:30:55.486Z,473.50
2017-09-29T02:32:16.150Z,452.40
2017-09-29T02:33:37.268Z,462.90
2017-09-29T02:36:06.875Z,0.00
2017-09-29T02:37:27.555Z,460.20
2017-09-29T02:38:50.286Z,459.50
2017-09-29T02:40:10.984Z,464.90
2017-09-29T02:41:31.549Z,443.00
2017-09-29T02:42:52.155Z,464.80
2017-09-29T02:44:12.817Z,456.30
2017-09-29T02:45:33.324Z,472.70
2017-09-29T02:46:54.301Z,477.00
2017-09-29T02:48:14.913Z,458.70
2017-09-29T02:49:35.413Z,474.80
2017-09-29T02:50:56.630Z,461.30
2017-09-29T02:52:17.538Z,451.20
2017-09-29T02:53:38.056Z,466.40
2017-09-29T02:54:59.561Z,467.00
2017-09-29T02:56:20.248Z,469.30
2017-09-29T02:57:40.825Z,458.90
2017-09-29T02:59:01.298Z,462.20
2017-09-29T03:00:21.885Z,482.60
2017-09-29T03:01:42.475Z,476.10
2017-09-29T03:03:02.979Z,458.00
2017-09-29T03:04:23.553Z,462.60
2017-09-29T03:05:44.417Z,451.60
2017-09-29T03:07:05.127Z,459.80
2017-09-29T03:08:26.906Z,444.70
2017-09-29T03:09:47.418Z,471.40
2017-09-29T03:11:08.127Z,464.20
2017-09-29T03:12:28.641Z,460.00
2017-09-29T03:13:49.204Z,482.70
2017-09-29T03:15:09.829Z,454.20
2017-09-29T03:16:30.966Z,485.10
2017-09-29T03:17:51.517Z,485.80
2017-09-29T03:19:12.127Z,481.70
2017-09-29T03:20:32.596Z,469.10
2017-09-29T03:21:55.252Z,454.70
2017-09-29T03:23:15.784Z,481.90
2017-09-29T03:24:36.633Z,459.80
2017-09-29T03:25:57.118Z,478.30
2017-09-29T03:27:17.922Z,476.80
2017-09-29T03:28:38.594Z,462.40
2017-09-29T03:29:59.143Z,464.10
2017-09-29T03:31:19.680Z,446.60
2017-09-29T03:32:40.075Z,491.30
2017-09-29T03:34:00.582Z,490.30
2017-09-29T03:35:21.057Z,462.50
2017-09-29T03:36:41.596Z,450.80
2017-09-29T03:38:02.309Z,437.90
2017-09-29T03:39:23.162Z,439.50
2017-09-29T03:40:44.308Z,429.50
2017-09-29T03:42:04.834Z,437.70
2017-09-29T03:43:25.450Z,424.70
2017-09-29T03:44:46.226Z,412.60
2017-09-29T03:46:06.809Z,435.10
2017-09-29T03:47:27.335Z,424.10
2017-09-29T03:48:48.105Z,399.40
2017-09-29T03:50:08.658Z,398.30
2017-09-29T03:51:29.203Z,410.60
2017-09-29T03:52:49.649Z,406.80
2017-09-29T03:54:10.751Z,410.60
2017-09-29T03:55:31.405Z,405.90
2017-09-29T03:56:51.870Z,406.00
2017-09-29T03:58:12.379Z,404.80
2017-09-29T03:59:33.369Z,404.00
2017-09-29T04:00:55.005Z,406.10
2017-09-29T04:02:16.377Z,400.40
2017-09-29T04:03:36.902Z,375.50
2017-09-29T04:04:57.975Z,365.20
2017-09-29T04:06:18.469Z,390.20
2017-09-29T04:07:39.055Z,368.70
2017-09-29T04:08:59.537Z,384.30
2017-09-29T04:10:20.517Z,378.40
2017-09-29T04:11:40.933Z,378.80
2017-09-29T04:13:01.360Z,365.00
2017-09-29T04:14:22.098Z,362.80
2017-09-29T04:15:42.898Z,373.50
2017-09-29T04:17:03.656Z,392.40
2017-09-29T04:18:24.212Z,391.00
2017-09-29T04:19:44.895Z,392.70
2017-09-29T04:21:05.622Z,409.60
2017-09-29T04:22:26.346Z,414.00
2017-09-29T04:23:46.943Z,400.60
2017-09-29T04:25:07.612Z,377.10
2017-09-29T04:26:28.528Z,378.60
2017-09-29T04:27:49.048Z,370.80
2017-09-29T04:29:09.782Z,355.20
2017-09-29T04:30:30.470Z,335.30
2017-09-29T04:31:50.971Z,309.40
2017-09-29T04:34:38.640Z,307.30
2017-09-29T04:35:59.096Z,275.70
2017-09-29T04:37:20.041Z,284.60
2017-09-29T04:38:40.762Z,280.70
2017-09-29T04:40:01.147Z,281.80
2017-09-29T04:41:21.579Z,289.60
2017-09-29T04:42:42.528Z,283.00
2017-09-29T04:44:02.996Z,283.30
2017-09-29T04:45:23.612Z,311.50
2017-09-29T04:46:44.153Z,294.00
2017-09-29T04:48:04.831Z,283.30
2017-09-29T04:49:25.227Z,272.40
2017-09-29T04:50:46.601Z,273.60
2017-09-29T04:52:07.870Z,266.00
2017-09-29T04:53:28.332Z,257.00
2017-09-29T04:54:49.570Z,257.20
2017-09-29T04:56:10.084Z,272.60
2017-09-29T04:57:30.639Z,261.70
2017-09-29T04:58:51.996Z,287.80
2017-09-29T05:00:12.451Z,298.80
2017-09-29T05:01:32.856Z,288.30
2017-09-29T05:02:53.510Z,267.50
2017-09-29T05:04:14.293Z,282.30
2017-09-29T05:05:35.249Z,254.00
2017-09-29T05:06:55.734Z,272.80
2017-09-29T05:08:16.547Z,279.30
2017-09-29T05:09:37.134Z,239.30
2017-09-29T05:10:57.660Z,250.10
2017-09-29T05:12:18.204Z,240.60
2017-09-29T05:13:39.786Z,257.50
2017-09-29T05:15:00.411Z,248.30
2017-09-29T05:16:21.085Z,257.10
2017-09-29T05:17:42.282Z,252.60
2017-09-29T05:19:02.766Z,248.80
2017-09-29T05:20:23.289Z,235.80
2017-09-29T05:21:43.719Z,250.60
2017-09-29T05:23:04.412Z,223.50
2017-09-29T05:24:26.812Z,234.60
2017-09-29T05:25:47.783Z,265.90
2017-09-29T05:27:09.371Z,274.90
2017-09-29T05:28:29.823Z,233.30
2017-09-29T05:29:50.333Z,224.60
2017-09-29T05:31:11.610Z,243.70
2017-09-29T05:32:31.993Z,242.90
2017-09-29T05:33:52.639Z,255.90
2017-09-29T05:35:13.220Z,259.90
2017-09-29T05:36:34.736Z,267.80
2017-09-29T05:37:55.501Z,264.10
2017-09-29T05:39:16.568Z,257.50
2017-09-29T05:40:37.205Z,269.30
2017-09-29T05:42:00.020Z,280.00
2017-09-29T05:43:20.622Z,305.90
2017-09-29T05:44:41.739Z,263.50
2017-09-29T05:46:03.787Z,264.70
2017-09-29T05:47:26.561Z,0.00
2017-09-29T05:58:50.944Z,259.70
2017-09-29T06:00:11.873Z,264.70
2017-09-29T06:01:32.876Z,285.80
2017-09-29T06:02:55.625Z,309.60
2017-09-29T06:04:17.086Z,288.80
2017-09-29T06:07:01.709Z,256.10
2017-09-29T06:08:23.006Z,243.90
2017-09-29T06:09:44.860Z,227.40
2017-09-29T06:11:05.837Z,247.80
2017-09-29T06:12:27.383Z,270.70
2017-09-29T06:13:48.392Z,234.90
2017-09-29T06:15:10.700Z,267.40
2017-09-29T06:16:32.938Z,0.00
2017-09-29T06:17:53.665Z,271.60
2017-09-29T06:19:16.461Z,254.50
2017-09-29T06:20:39.460Z,317.20
2017-09-29T06:22:00.973Z,305.30
2017-09-29T06:23:22.435Z,285.30
2017-09-29T06:24:43.088Z,253.50
2017-09-29T06:26:04.220Z,280.00
2017-09-29T06:27:25.139Z,236.00
2017-09-29T06:28:46.631Z,234.70
2017-09-29T06:30:07.521Z,231.40
2017-09-29T06:31:28.287Z,227.80
2017-09-29T06:32:49.094Z,191.60
2017-09-29T06:34:10.088Z,216.90
2017-09-29T06:35:31.858Z,198.30
2017-09-29T06:36:55.533Z,216.90
2017-09-29T06:38:17.408Z,193.80
2017-09-29T06:39:40.706Z,203.90
2017-09-29T06:41:02.196Z,196.10
2017-09-29T06:42:24.263Z,203.80
2017-09-29T06:43:46.625Z,227.80
2017-09-29T06:45:09.168Z,209.00
2017-09-29T06:46:30.436Z,188.90
2017-09-29T06:47:51.384Z,191.70
2017-09-29T06:49:13.047Z,188.80
2017-09-29T06:50:41.709Z,183.80
2017-09-29T06:52:03.109Z,189.40
2017-09-29T06:53:23.952Z,198.60
2017-09-29T06:54:44.717Z,190.80
2017-09-29T06:56:05.682Z,170.40
2017-09-29T06:57:27.136Z,181.10
2017-09-29T06:58:48.062Z,171.10
2017-09-29T07:00:08.923Z,161.90
2017-09-29T07:01:30.550Z,154.40
2017-09-29T07:02:53.051Z,156.50
2017-09-29T07:04:13.803Z,176.50
2017-09-29T07:05:34.492Z,175.90
2017-09-29T07:06:55.440Z,182.50
2017-09-29T07:08:16.183Z,184.70
2017-09-29T07:09:37.218Z,177.70
2017-09-29T07:10:57.974Z,168.40
2017-09-29T07:12:18.966Z,176.60
2017-09-29T07:13:39.784Z,151.00
2017-09-29T07:15:00.784Z,152.90
2017-09-29T07:16:21.786Z,157.20
2017-09-29T07:17:43.147Z,167.90
2017-09-29T07:19:05.523Z,157.60
2017-09-29T07:20:27.251Z,165.70
2017-09-29T07:21:48.657Z,152.40
2017-09-29T07:23:10.829Z,154.10
2017-09-29T07:26:16.366Z,146.70
2017-09-29T07:27:38.636Z,167.20
2017-09-29T07:29:00.214Z,158.10
2017-09-29T07:30:21.505Z,141.90
2017-09-29T07:31:42.588Z,143.50
2017-09-29T07:33:03.877Z,142.30
2017-09-29T07:34:25.004Z,132.80
2017-09-29T07:35:46.236Z,149.00
2017-09-29T07:37:07.331Z,144.90
2017-09-29T07:38:33.642Z,138.30
2017-09-29T07:39:54.709Z,148.80
2017-09-29T07:41:15.686Z,176.30
2017-09-29T07:42:36.954Z,220.30
2017-09-29T07:43:57.960Z,161.50
2017-09-29T07:45:19.135Z,161.40
2017-09-29T07:46:40.147Z,152.30
2017-09-29T07:48:01.083Z,164.30
2017-09-29T07:49:22.207Z,132.20
2017-09-29T07:50:43.273Z,131.20
2017-09-29T07:52:04.330Z,142.70
2017-09-29T07:53:25.569Z,129.40
2017-09-29T07:54:46.791Z,148.30
2017-09-29T07:56:07.953Z,132.60
2017-09-29T07:57:29.022Z,128.50
2017-09-29T07:58:50.738Z,119.00
2017-09-29T08:00:11.824Z,138.40
2017-09-29T08:01:32.709Z,160.90
2017-09-29T08:02:59.637Z,99.30
2017-09-29T08:04:20.600Z,105.20
2017-09-29T08:05:41.471Z,106.30
2017-09-29T08:07:03.957Z,101.40
2017-09-29T08:08:24.966Z,113.00
2017-09-29T08:09:46.513Z,110.30
2017-09-29T08:11:07.579Z,111.10
2017-09-29T08:12:28.575Z,108.90
2017-09-29T08:13:49.604Z,110.20
2017-09-29T08:15:10.449Z,105.60
2017-09-29T08:16:31.427Z,112.40
2017-09-29T08:17:53.203Z,111.30
2017-09-29T08:19:14.238Z,107.10
2017-09-29T08:20:35.081Z,93.60
2017-09-29T08:21:56.121Z,105.30
2017-09-29T08:23:17.102Z,100.00
2017-09-29T08:24:38.095Z,101.30
2017-09-29T08:25:58.882Z,100.40
2017-09-29T08:27:19.963Z,91.30
2017-09-29T08:28:41.621Z,107.60
2017-09-29T08:30:02.720Z,113.90
2017-09-29T08:31:23.777Z,107.40
2017-09-29T08:32:45.288Z,108.60
2017-09-29T08:34:06.335Z,100.40
2017-09-29T08:35:27.361Z,98.50
2017-09-29T08:36:48.273Z,99.30
2017-09-29T08:38:09.580Z,109.30
2017-09-29T08:39:31.299Z,112.70
2017-09-29T08:40:52.276Z,120.50
2017-09-29T08:42:14.184Z,110.50
2017-09-29T08:43:35.853Z,115.80
2017-09-29T08:44:56.862Z,94.90
2017-09-29T08:46:17.819Z,106.00
2017-09-29T08:47:38.924Z,108.30
2017-09-29T08:48:59.818Z,109.00
2017-09-29T08:50:20.648Z,120.30
2017-09-29T08:51:41.504Z,112.90
2017-09-29T08:53:02.435Z,123.70
2017-09-29T08:54:23.177Z,106.30
2017-09-29T08:55:43.992Z,99.60
2017-09-29T08:57:04.771Z,111.40
2017-09-29T08:58:25.620Z,117.40
2017-09-29T08:59:46.325Z,94.90
2017-09-29T09:01:07.147Z,93.50
2017-09-29T09:02:27.991Z,126.00
2017-09-29T09:03:48.914Z,113.30
2017-09-29T09:05:10.740Z,100.30
2017-09-29T09:06:32.190Z,100.80
2017-09-29T09:07:54.424Z,93.60
2017-09-29T09:09:16.703Z,93.80
2017-09-29T09:10:37.369Z,85.00
2017-09-29T09:11:58.190Z,82.90
2017-09-29T09:13:18.841Z,78.30
2017-09-29T09:14:39.722Z,79.00
2017-09-29T09:16:01.179Z,73.30
2017-09-29T09:17:22.149Z,89.30
2017-09-29T09:18:43.555Z,85.00
2017-09-29T09:20:06.197Z,0.00
2017-09-29T09:21:27.615Z,80.80
2017-09-29T09:22:55.754Z,77.50
2017-09-29T09:24:17.291Z,78.10
2017-09-29T09:25:38.441Z,85.80
2017-09-29T09:26:59.316Z,81.90
2017-09-29T09:28:20.273Z,73.70
2017-09-29T09:29:41.312Z,72.40
2017-09-29T09:31:02.388Z,59.20
2017-09-29T09:32:23.165Z,73.20
2017-09-29T09:33:43.983Z,66.80
2017-09-29T09:35:05.025Z,69.40
2017-09-29T09:36:25.876Z,69.10
2017-09-29T09:37:46.963Z,67.70
2017-09-29T09:46:16.299Z,57.70
2017-09-29T09:47:37.871Z,62.60
2017-09-29T09:48:58.886Z,71.00
2017-09-29T09:50:20.011Z,54.90
2017-09-29T09:51:41.018Z,60.50
2017-09-29T09:53:02.484Z,64.90
2017-09-29T09:54:23.621Z,65.10
2017-09-29T09:55:44.668Z,61.70
2017-09-29T09:57:06.100Z,56.60
2017-09-29T09:58:28.290Z,50.50
2017-09-29T09:59:50.003Z,53.70
2017-09-29T10:01:11.518Z,54.40
2017-09-29T10:02:32.524Z,50.60
2017-09-29T10:03:53.405Z,57.00
2017-09-29T10:05:14.044Z,57.00
2017-09-29T10:06:34.856Z,54.00
2017-09-29T10:07:57.078Z,57.70
2017-09-29T10:09:18.079Z,56.80
2017-09-29T10:10:39.032Z,55.10
2017-09-29T10:11:59.952Z,47.50
2017-09-29T10:13:20.925Z,57.20
2017-09-29T10:14:42.529Z,51.70
2017-09-29T10:16:03.833Z,55.40
2017-09-29T10:17:24.646Z,53.70
2017-09-29T10:18:45.551Z,46.40
2017-09-29T10:20:06.517Z,46.00
2017-09-29T10:21:28.263Z,45.20
2017-09-29T10:22:48.996Z,51.60
2017-09-29T10:24:10.214Z,44.60
2017-09-29T10:25:31.063Z,45.80
2017-09-29T10:26:52.668Z,45.80
2017-09-29T10:28:13.590Z,44.80
2017-09-29T10:29:34.523Z,46.00
2017-09-29T10:30:55.367Z,41.50
2017-09-29T10:32:16.376Z,38.70
2017-09-29T10:33:37.978Z,34.40
2017-09-29T10:34:58.775Z,42.00
2017-09-29T10:36:19.512Z,41.70
2017-09-29T10:37:40.892Z,38.50
2017-09-29T10:39:01.819Z,42.70
2017-09-29T10:40:22.600Z,41.30
2017-09-29T10:41:43.401Z,39.20
2017-09-29T10:43:04.231Z,35.50
2017-09-29T10:44:25.108Z,37.60
2017-09-29T10:45:45.849Z,40.70
2017-09-29T10:47:06.964Z,38.30
2017-09-29T10:48:28.663Z,40.90
2017-09-29T10:49:49.416Z,41.00
2017-09-29T10:51:10.175Z,43.90
2017-09-29T10:52:30.913Z,44.80
2017-09-29T10:53:51.901Z,37.40
2017-09-29T10:55:13.058Z,42.80
2017-09-29T10:56:34.625Z,44.60
2017-09-29T10:57:55.477Z,41.10
2017-09-29T10:59:16.272Z,37.40
2017-09-29T11:00:37.741Z,37.60
2017-09-29T11:01:58.645Z,43.60
2017-09-29T11:03:19.679Z,36.40
2017-09-29T11:04:40.458Z,41.90
2017-09-29T11:06:01.461Z,37.20
2017-09-29T11:07:22.336Z,36.50
2017-09-29T11:08:43.200Z,35.30
2017-09-29T11:10:03.989Z,33.70
2017-09-29T11:11:24.824Z,33.90
2017-09-29T11:12:45.748Z,33.00
2017-09-29T11:14:06.515Z,35.50
2017-09-29T11:15:27.368Z,35.90
2017-09-29T11:16:48.998Z,34.30
2017-09-29T11:18:09.861Z,32.60
2017-09-29T11:19:30.620Z,32.20
2017-09-29T11:20:51.702Z,30.20
2017-09-29T11:22:13.338Z,30.80
2017-09-29T11:23:34.345Z,32.90
2017-09-29T11:24:55.200Z,31.60
2017-09-29T11:26:16.208Z,27.70
2017-09-29T11:27:37.256Z,27.60
2017-09-29T11:28:58.496Z,29.10
2017-09-29T11:30:19.435Z,26.70
2017-09-29T11:31:41.729Z,31.90
2017-09-29T11:33:02.976Z,26.00
2017-09-29T11:34:24.666Z,25.50
2017-09-29T11:35:47.067Z,28.80
2017-09-29T11:37:08.067Z,25.90
2017-09-29T11:38:29.549Z,28.20
2017-09-29T11:39:51.736Z,24.10
2017-09-29T11:55:33.897Z,21.60
2017-09-29T11:56:54.721Z,21.30
2017-09-29T11:58:16.444Z,20.30
2017-09-29T11:59:37.097Z,22.30
2017-09-29T12:00:58.138Z,19.70
2017-09-29T12:02:18.930Z,21.00
2017-09-29T12:03:39.725Z,22.40
2017-09-29T12:05:00.628Z,22.80
2017-09-29T12:06:21.352Z,20.80
2017-09-29T12:07:42.070Z,21.30
2017-09-29T12:09:02.973Z,22.90
2017-09-29T12:10:23.813Z,24.20
2017-09-29T12:11:44.553Z,27.40
2017-09-29T12:13:05.427Z,27.30
2017-09-29T12:14:26.186Z,28.40
2017-09-29T12:15:46.982Z,28.50
2017-09-29T12:17:07.878Z,26.00
2017-09-29T12:18:28.666Z,23.50
2017-09-29T12:19:49.650Z,24.10
2017-09-29T12:21:11.203Z,23.10
2017-09-29T12:22:31.888Z,22.70
2017-09-29T12:23:52.527Z,23.30
2017-09-29T12:25:13.388Z,27.60
2017-09-29T12:26:34.256Z,27.50
2017-09-29T12:27:55.557Z,26.30
2017-09-29T12:29:17.133Z,23.80
2017-09-29T12:30:49.985Z,26.40
2017-09-29T12:32:10.773Z,25.20
2017-09-29T12:33:32.879Z,27.50
2017-09-29T12:34:53.709Z,24.40
2017-09-29T12:36:14.469Z,24.30
2017-09-29T12:37:35.929Z,27.30
2017-09-29T12:38:56.912Z,25.20
2017-09-29T12:40:18.490Z,24.60
2017-09-29T12:41:39.682Z,27.10
2017-09-29T12:43:00.496Z,24.30
2017-09-29T12:44:21.678Z,22.40
2017-09-29T12:45:42.593Z,23.20
2017-09-29T12:47:03.435Z,25.10
2017-09-29T12:48:24.138Z,28.00
2017-09-29T12:49:45.228Z,23.70
2017-09-29T12:51:05.955Z,28.70
2017-09-29T12:52:26.657Z,22.60
2017-09-29T12:53:47.605Z,23.20
2017-09-29T12:55:08.412Z,23.60
2017-09-29T12:56:29.789Z,27.30
2017-09-29T12:57:51.169Z,27.50
2017-09-29T12:59:12.159Z,23.50
2017-09-29T13:00:33.135Z,25.00
2017-09-29T13:01:54.923Z,22.00
2017-09-29T13:03:15.884Z,24.30
2017-09-29T13:04:37.633Z,25.70
2017-09-29T13:05:59.095Z,21.50
2017-09-29T13:07:19.944Z,25.10
2017-09-29T13:08:41.840Z,25.90
2017-09-29T13:10:03.115Z,24.30
2017-09-29T13:11:24.558Z,33.10
2017-09-29T13:12:45.535Z,26.40
2017-09-29T13:14:06.420Z,37.60
2017-09-29T13:15:27.285Z,31.30
2017-09-29T13:16:48.182Z,24.50
2017-09-29T13:18:09.175Z,24.80
2017-09-29T13:19:30.708Z,34.20
2017-09-29T13:20:51.538Z,24.40
2017-09-29T13:22:12.410Z,29.20
2017-09-29T13:23:34.349Z,25.40
2017-09-29T13:24:55.957Z,22.90
2017-09-29T13:26:16.867Z,22.10
2017-09-29T13:27:37.879Z,26.20
2017-09-29T13:28:59.355Z,22.90
2017-09-29T13:36:02.215Z,22.20
2017-09-29T13:37:23.697Z,22.50
2017-09-29T13:38:44.550Z,21.40
2017-09-29T13:40:05.790Z,22.20
2017-09-29T13:41:27.083Z,21.40
2017-09-29T13:42:48.979Z,17.40
2017-09-29T13:44:09.757Z,23.80
2017-09-29T13:45:31.117Z,18.40
2017-09-29T13:46:52.857Z,18.30
2017-09-29T13:48:14.138Z,19.00
2017-09-29T13:49:35.953Z,16.60
2017-09-29T13:50:56.744Z,17.40
2017-09-29T13:52:17.756Z,14.90
2017-09-29T13:53:39.546Z,20.30
2017-09-29T13:55:00.539Z,22.20
2017-09-29T13:56:21.417Z,19.80
2017-09-29T13:57:42.398Z,19.70
2017-09-29T13:59:03.521Z,16.00
2017-09-29T14:00:24.396Z,22.80
2017-09-29T14:01:45.130Z,19.20
2017-09-29T14:03:06.264Z,19.30
2017-09-29T14:04:27.090Z,20.80
2017-09-29T14:05:49.146Z,14.60
2017-09-29T14:07:12.113Z,18.70
2017-09-29T14:08:33.560Z,15.50
2017-09-29T14:09:54.400Z,16.20
2017-09-29T14:11:15.777Z,18.40
2017-09-29T14:12:36.789Z,17.70
2017-09-29T14:13:57.577Z,19.70
2017-09-29T14:15:18.423Z,13.60
2017-09-29T14:25:35.103Z,15.40
2017-09-29T14:26:56.009Z,20.00
2017-09-29T14:28:17.191Z,22.10
2017-09-29T14:29:38.191Z,20.50
2017-09-29T14:30:59.132Z,18.60
2017-09-29T14:32:21.022Z,18.90
2017-09-29T14:33:41.765Z,16.10
2017-09-29T14:35:02.726Z,18.30
2017-09-29T14:36:24.023Z,17.50
2017-09-29T14:37:46.021Z,17.30
2017-09-29T14:39:06.918Z,18.00
2017-09-29T14:40:27.590Z,17.80
2017-09-29T14:41:48.453Z,20.30
2017-09-29T14:43:10.099Z,19.20
2017-09-29T14:44:30.976Z,18.60
2017-09-29T14:45:51.812Z,18.20
2017-09-29T14:47:12.750Z,15.60
2017-09-29T14:48:33.468Z,14.50
2017-09-29T14:49:54.516Z,16.10
2017-09-29T14:51:15.551Z,15.10
2017-09-29T14:52:36.410Z,17.40
2017-09-29T14:53:57.447Z,15.10
2017-09-29T14:55:18.949Z,17.80
2017-09-29T14:56:39.702Z,16.40
2017-09-29T14:58:00.586Z,16.60
2017-09-29T14:59:21.477Z,18.80
2017-09-29T15:00:42.373Z,14.90
2017-09-29T15:02:03.994Z,14.20
2017-09-29T15:03:24.960Z,15.20
2017-09-29T15:04:45.807Z,17.00
2017-09-29T15:06:06.707Z,12.20
2017-09-29T15:07:27.646Z,15.70
2017-09-29T15:08:48.485Z,11.90
2017-09-29T15:10:09.177Z,14.10
2017-09-29T15:11:29.909Z,18.60
2017-09-29T15:12:50.962Z,13.90
2017-09-29T15:14:13.149Z,16.80
2017-09-29T15:15:34.173Z,13.70
2017-09-29T15:16:54.933Z,13.90
2017-09-29T15:18:16.121Z,16.00
2017-09-29T15:19:37.069Z,17.20
2017-09-29T15:20:57.969Z,15.40
2017-09-29T15:25:52.159Z,17.40
2017-09-29T15:27:13.766Z,21.00
2017-09-29T15:28:46.442Z,20.50
2017-09-29T15:30:18.783Z,16.20
2017-09-29T15:31:42.377Z,16.80
2017-09-29T15:33:03.506Z,14.40
2017-09-29T15:34:26.628Z,14.30
2017-09-29T15:35:47.857Z,16.30
2017-09-29T15:37:11.045Z,16.60
2017-09-29T15:38:31.985Z,0.00
2017-09-29T15:39:52.656Z,15.00
2017-09-29T15:41:13.697Z,15.10
2017-09-29T15:42:34.597Z,13.10
2017-09-29T15:43:55.404Z,16.70
2017-09-29T15:45:16.733Z,15.50
2017-09-29T15:46:37.566Z,13.60
2017-09-29T15:47:58.400Z,14.90
2017-09-29T15:49:19.879Z,14.60
2017-09-29T15:50:41.954Z,15.00
2017-09-29T15:52:03.696Z,17.20
2017-09-29T15:53:25.020Z,15.00
2017-09-29T15:54:46.955Z,15.50
2017-09-29T15:56:08.368Z,16.80
2017-09-29T15:57:30.058Z,16.70
2017-09-29T15:58:51.346Z,15.00
2017-09-29T16:00:13.343Z,14.60
2017-09-29T16:01:34.809Z,18.70
2017-09-29T16:03:00.810Z,17.40
2017-09-29T16:04:22.443Z,17.00
2017-09-29T16:05:43.842Z,17.80
2017-09-29T16:07:06.638Z,16.00
2017-09-29T16:08:28.949Z,15.90
2017-09-29T16:09:53.687Z,16.30
2017-09-29T16:11:16.306Z,16.40
2017-09-29T16:12:38.368Z,17.70
2017-09-29T16:14:00.043Z,17.60
2017-09-29T16:15:21.601Z,18.90
2017-09-29T16:16:43.215Z,15.80
2017-09-29T16:18:05.677Z,15.00
2017-09-29T16:19:27.006Z,17.40
2017-09-29T16:20:49.019Z,16.50
2017-09-29T16:22:10.489Z,18.90
2017-09-29T16:23:31.367Z,19.10
2017-09-29T16:24:52.363Z,18.60
2017-09-29T16:26:13.254Z,18.30
2017-09-29T16:27:33.847Z,18.80
2017-09-29T16:28:55.374Z,17.10
2017-09-29T16:30:16.155Z,18.80
2017-09-29T16:31:39.101Z,19.30
2017-09-29T16:33:00.657Z,19.80
2017-09-29T16:34:21.618Z,18.30
2017-09-29T16:35:42.675Z,19.50
2017-09-29T16:37:03.424Z,24.00
2017-09-29T16:38:24.142Z,23.80
2017-09-29T16:39:44.780Z,20.70
2017-09-29T16:41:06.420Z,20.80
2017-09-29T16:42:28.168Z,22.50
2017-09-29T16:43:49.004Z,28.50
2017-09-29T16:45:09.994Z,25.90
2017-09-29T16:46:30.727Z,26.60
2017-09-29T16:47:51.555Z,22.70
2017-09-29T16:49:13.719Z,25.30
2017-09-29T16:50:35.297Z,20.40
2017-09-29T16:51:56.134Z,22.70
2017-09-29T16:53:17.686Z,28.90
2017-09-29T16:54:38.622Z,27.80
2017-09-29T16:55:59.734Z,29.70
2017-09-29T16:57:20.739Z,25.00
2017-09-29T16:58:41.645Z,25.10
2017-09-29T17:00:04.434Z,24.80
2017-09-29T17:01:26.954Z,28.80
2017-09-29T17:02:50.868Z,31.70
2017-09-29T17:04:13.845Z,0.00
2017-09-29T17:05:36.792Z,29.20
2017-09-29T17:06:59.138Z,27.00
2017-09-29T17:08:21.134Z,23.50
2017-09-29T17:09:43.264Z,25.50
2017-09-29T17:11:05.850Z,27.40
2017-09-29T17:12:27.742Z,25.10
2017-09-29T17:13:49.714Z,27.40
2017-09-29T17:15:12.915Z,26.70
2017-09-29T17:16:36.064Z,25.30
2017-09-29T17:17:58.527Z,28.00
2017-09-29T17:19:20.372Z,25.70
2017-09-29T17:20:42.171Z,29.10
2017-09-29T17:22:03.690Z,30.00
2017-09-29T17:23:25.317Z,30.50
2017-09-29T17:24:48.040Z,27.10
2017-09-29T17:26:10.620Z,26.60
2017-09-29T17:27:32.653Z,30.10
2017-09-29T17:28:54.552Z,33.60
2017-09-29T17:30:16.742Z,26.90
2017-09-29T17:31:39.037Z,25.60
2017-09-29T17:33:01.518Z,26.40
2017-09-29T17:34:23.233Z,29.70
2017-09-29T17:35:45.748Z,34.30
2017-09-29T17:37:08.657Z,42.00
2017-09-29T17:38:30.495Z,32.00
2017-09-29T17:39:53.421Z,28.80
2017-09-29T17:41:15.355Z,30.30
2017-09-29T17:42:38.213Z,34.10
2017-09-29T17:44:00.729Z,27.00
2017-09-29T17:45:22.535Z,33.50
2017-09-29T17:48:15.379Z,36.70
2017-09-29T17:49:44.651Z,30.40
2017-09-29T17:51:05.439Z,29.70
2017-09-29T17:52:26.243Z,29.20
2017-09-29T17:53:47.830Z,30.50
2017-09-29T17:55:08.680Z,29.20
2017-09-29T17:56:30.643Z,32.80
2017-09-29T17:57:53.399Z,30.60
2017-09-29T17:59:15.630Z,30.40
2017-09-29T18:00:37.151Z,30.10
2017-09-29T18:01:58.883Z,27.80
2017-09-29T18:03:20.571Z,27.50
2017-09-29T18:04:44.047Z,28.50
2017-09-29T18:06:07.082Z,27.40
2017-09-29T18:07:29.330Z,24.90